TLV weather

Ben Gurion International Airport
Tel Aviv, Central District, Israel

Public forecast

Using degrees Celsius for public forecast. Weather courtesy of forecast.io.

Current aviation weather report (METAR) for Ben Gurion International Airport

Retrieved 2019/11/20 13:20 UTC (8 minutes ago):

LLBG 201320Z 10010KT CAVOK 24/M09 Q1017 NOSIG

Aviation forecast (TAF) for Ben Gurion International Airport

Retrieved 2019/11/20 12:09 UTC (1 hour ago):

TAF TAF LLBG 201105Z 2012/2112 10008KT CAVOK BECMG 2014/2016 04005KT TEMPO 2020/2108 12005KT BECMG 2108/2110 30008KT TX25/2012Z TN11/2104Z